createdAt,value
2023-06-22T00:03:59.729Z,94.73
2023-06-22T00:09:02.850Z,94.71
2023-06-22T00:14:06.094Z,97.54
2023-06-22T00:19:08.593Z,100.00
2023-06-22T00:24:10.746Z,100.00
2023-06-22T00:29:12.977Z,99.76
2023-06-22T00:34:15.239Z,100.00
2023-06-22T00:39:18.013Z,100.00
2023-06-22T00:44:20.217Z,100.00
2023-06-22T00:49:22.803Z,98.43
2023-06-22T00:54:26.830Z,97.99
2023-06-22T00:59:29.986Z,96.37
2023-06-22T01:04:40.173Z,97.75
2023-06-22T01:10:05.929Z,99.66
2023-06-22T01:15:22.254Z,96.55
2023-06-22T01:20:28.579Z,98.50
2023-06-22T01:25:46.056Z,96.81
2023-06-22T01:31:02.133Z,100.00
2023-06-22T01:36:07.792Z,100.00
2023-06-22T01:41:11.569Z,100.00
2023-06-22T01:46:16.500Z,100.00
2023-06-22T01:51:18.853Z,100.00
2023-06-22T01:56:21.118Z,99.75
2023-06-22T02:01:32.879Z,100.00
2023-06-22T02:06:40.376Z,99.71
2023-06-22T02:11:47.217Z,97.33
2023-06-22T02:16:52.529Z,96.75
2023-06-22T02:21:54.893Z,99.13
2023-06-22T02:26:57.232Z,100.00
2023-06-22T02:31:59.737Z,99.04
2023-06-22T02:37:03.838Z,100.00
2023-06-22T02:42:06.110Z,100.00
2023-06-22T02:47:08.613Z,100.00
2023-06-22T02:52:10.733Z,99.61
2023-06-22T02:57:15.075Z,98.76
2023-06-22T03:02:19.759Z,97.58
2023-06-22T03:07:22.214Z,99.02
2023-06-22T03:12:26.754Z,97.37
2023-06-22T03:17:30.972Z,100.00
2023-06-22T03:22:33.198Z,100.00
2023-06-22T03:27:35.314Z,100.00
2023-06-22T03:32:37.615Z,100.00
2023-06-22T03:37:41.893Z,100.00
2023-06-22T03:42:44.060Z,100.00
2023-06-22T03:47:46.297Z,100.00
2023-06-22T03:52:48.678Z,100.00
2023-06-22T03:57:50.925Z,100.00
2023-06-22T04:02:53.278Z,100.00
2023-06-22T04:07:55.799Z,100.00
2023-06-22T04:12:58.184Z,100.00
2023-06-22T04:18:00.321Z,100.00
2023-06-22T04:23:02.475Z,100.00
2023-06-22T04:28:05.481Z,100.00
2023-06-22T04:33:07.700Z,98.63
2023-06-22T04:38:10.300Z,96.61
2023-06-22T04:43:12.423Z,94.95
2023-06-22T04:48:17.446Z,95.80
2023-06-22T04:53:19.765Z,94.74
2023-06-22T04:58:22.644Z,93.08
2023-06-22T05:03:27.601Z,92.31
2023-06-22T05:08:29.934Z,93.47
2023-06-22T05:13:32.494Z,92.16
2023-06-22T05:18:36.312Z,90.99
2023-06-22T05:23:38.531Z,90.55
2023-06-22T05:28:40.619Z,91.07
2023-06-22T05:33:45.248Z,89.02
2023-06-22T05:38:47.621Z,89.66
2023-06-22T05:43:49.785Z,88.94
2023-06-22T05:48:51.908Z,89.25
2023-06-22T05:53:54.082Z,88.53
2023-06-22T05:58:56.467Z,88.82
2023-06-22T06:03:58.756Z,89.29
2023-06-22T06:09:01.110Z,89.50
2023-06-22T06:14:03.287Z,89.32
2023-06-22T06:19:05.410Z,88.28
2023-06-22T06:24:07.952Z,88.49
2023-06-22T06:29:10.189Z,87.20
2023-06-22T06:34:12.321Z,86.92
2023-06-22T06:39:14.554Z,87.14
2023-06-22T06:44:16.776Z,85.98
2023-06-22T06:49:18.888Z,86.65
2023-06-22T06:54:22.012Z,85.59
2023-06-22T06:59:24.226Z,84.59
2023-06-22T07:04:26.780Z,83.70
2023-06-22T07:09:29.316Z,82.81
2023-06-22T07:14:32.808Z,81.27
2023-06-22T07:19:35.323Z,81.37
2023-06-22T07:24:38.381Z,80.89
2023-06-22T07:29:43.580Z,79.98
2023-06-22T07:34:45.792Z,78.33
2023-06-22T07:39:48.022Z,76.49
2023-06-22T07:44:52.245Z,76.06
2023-06-22T07:49:56.118Z,74.78
2023-06-22T07:54:58.529Z,74.09
2023-06-22T08:00:17.129Z,74.13
2023-06-22T08:05:22.401Z,73.24
2023-06-22T08:10:25.872Z,72.01
2023-06-22T08:15:30.027Z,72.25
2023-06-22T08:20:32.692Z,68.83
2023-06-22T08:25:35.938Z,68.98
2023-06-22T08:30:38.355Z,70.43
2023-06-22T08:35:40.587Z,70.70
2023-06-22T08:40:43.248Z,70.19
2023-06-22T08:45:45.438Z,68.70
2023-06-22T08:50:48.053Z,64.23
2023-06-22T08:55:52.118Z,62.93
2023-06-22T09:00:54.347Z,60.14
2023-06-22T09:05:57.206Z,62.64
2023-06-22T09:10:59.423Z,62.49
2023-06-22T09:16:01.717Z,64.53
2023-06-22T09:21:04.230Z,62.57
2023-06-22T09:26:07.540Z,57.77
2023-06-22T09:31:09.894Z,57.64
2023-06-22T09:36:12.020Z,57.76
2023-06-22T09:41:14.202Z,55.15
2023-06-22T09:46:19.249Z,54.68
2023-06-22T09:51:22.971Z,52.79
2023-06-22T09:56:26.760Z,54.66
2023-06-22T10:01:30.278Z,52.73
2023-06-22T10:06:32.399Z,51.23
2023-06-22T10:11:36.304Z,54.11
2023-06-22T10:16:38.741Z,55.54
2023-06-22T10:21:41.028Z,54.68
2023-06-22T10:26:43.177Z,53.33
2023-06-22T10:31:45.350Z,52.94
2023-06-22T10:36:49.881Z,50.34
2023-06-22T10:41:52.204Z,47.68
2023-06-22T10:46:54.360Z,49.63
2023-06-22T10:51:56.834Z,51.91
2023-06-22T10:56:59.119Z,52.95
2023-06-22T11:02:01.392Z,53.87
2023-06-22T11:07:04.182Z,54.90
2023-06-22T11:12:07.539Z,55.14
2023-06-22T11:17:09.644Z,56.27
2023-06-22T11:22:12.064Z,57.84
2023-06-22T11:27:14.370Z,57.97
2023-06-22T11:32:16.686Z,57.18
2023-06-22T11:37:18.840Z,55.52
2023-06-22T11:42:21.017Z,53.38
2023-06-22T11:47:23.201Z,53.14
2023-06-22T11:52:25.643Z,55.81
2023-06-22T11:57:27.974Z,57.67
2023-06-22T12:02:30.354Z,54.80
2023-06-22T12:07:32.687Z,54.88
2023-06-22T12:12:34.836Z,57.18
2023-06-22T12:17:37.173Z,56.82
2023-06-22T12:22:39.322Z,59.28
2023-06-22T12:27:41.429Z,57.79
2023-06-22T12:32:44.284Z,58.89
2023-06-22T12:37:46.486Z,60.52
2023-06-22T12:42:48.673Z,59.78
2023-06-22T12:47:51.411Z,60.74
2023-06-22T12:52:53.902Z,61.02
2023-06-22T12:57:56.595Z,60.65
2023-06-22T13:02:59.078Z,60.74
2023-06-22T13:08:01.196Z,59.04
2023-06-22T13:13:03.437Z,59.59
2023-06-22T13:18:05.734Z,61.91
2023-06-22T13:23:08.033Z,61.56
2023-06-22T13:28:23.610Z,61.75
2023-06-22T13:33:29.914Z,61.97
2023-06-22T13:38:33.425Z,60.67
2023-06-22T13:43:35.595Z,60.90
2023-06-22T13:48:37.738Z,60.95
2023-06-22T13:53:39.912Z,59.17
2023-06-22T13:58:42.169Z,59.40
2023-06-22T14:03:46.831Z,57.50
2023-06-22T14:08:48.909Z,57.68
2023-06-22T14:13:51.171Z,54.67
2023-06-22T14:18:55.114Z,51.87
2023-06-22T14:23:59.178Z,50.94
2023-06-22T14:29:01.362Z,53.66
2023-06-22T14:34:04.831Z,50.70
2023-06-22T14:39:06.992Z,50.37
2023-06-22T14:44:09.456Z,47.92
2023-06-22T14:49:11.764Z,49.64
2023-06-22T14:54:13.951Z,47.38
2023-06-22T14:59:16.115Z,48.13
2023-06-22T15:04:18.327Z,45.23
2023-06-22T15:09:20.678Z,47.76
2023-06-22T15:14:23.011Z,40.45
2023-06-22T15:19:25.420Z,40.29
2023-06-22T15:24:27.903Z,45.26
2023-06-22T15:29:35.310Z,40.37
2023-06-22T15:34:37.655Z,40.81
2023-06-22T15:39:39.879Z,39.34
2023-06-22T15:44:42.100Z,43.02
2023-06-22T15:49:44.476Z,39.77
2023-06-22T15:54:47.454Z,44.65
2023-06-22T15:59:49.671Z,41.46
2023-06-22T16:04:51.858Z,44.97
2023-06-22T16:09:54.445Z,41.53
2023-06-22T16:14:57.125Z,45.71
2023-06-22T16:20:00.853Z,41.85
2023-06-22T16:25:03.408Z,45.12
2023-06-22T16:30:08.190Z,43.06
2023-06-22T16:35:10.668Z,44.27
2023-06-22T16:40:13.429Z,45.09
2023-06-22T16:45:19.017Z,44.76
2023-06-22T16:50:21.258Z,44.97
2023-06-22T16:55:25.793Z,46.08
2023-06-22T17:00:28.389Z,45.59
2023-06-22T17:05:32.895Z,46.04
2023-06-22T17:10:35.478Z,48.37
2023-06-22T17:15:40.275Z,48.89
2023-06-22T17:20:42.392Z,47.29
2023-06-22T17:25:47.781Z,49.67
2023-06-22T17:31:11.532Z,48.04
2023-06-22T17:36:15.159Z,50.32
2023-06-22T17:41:17.800Z,47.94
2023-06-22T17:46:20.276Z,48.15
2023-06-22T17:56:53.464Z,49.69
2023-06-22T18:01:55.695Z,50.49
2023-06-22T18:06:58.285Z,51.49
2023-06-22T18:12:04.972Z,51.33
2023-06-22T18:17:07.927Z,51.39
2023-06-22T18:22:10.188Z,52.44
2023-06-22T18:27:15.937Z,53.24
2023-06-22T18:32:18.442Z,54.05
2023-06-22T18:37:21.582Z,55.45
2023-06-22T18:42:24.062Z,56.01
2023-06-22T18:47:32.825Z,58.49
2023-06-22T18:52:40.009Z,59.28
2023-06-22T18:57:42.156Z,60.21
2023-06-22T19:02:49.992Z,60.53
2023-06-22T19:07:57.457Z,59.50
2023-06-22T19:13:31.291Z,59.85
2023-06-22T19:18:41.144Z,63.64
2023-06-22T19:23:46.131Z,59.24
2023-06-22T19:28:55.588Z,61.18
2023-06-22T19:34:07.283Z,62.25
2023-06-22T19:39:09.665Z,64.89
2023-06-22T19:44:11.952Z,66.83
2023-06-22T19:49:18.462Z,69.53
2023-06-22T19:54:20.687Z,71.18
2023-06-22T19:59:25.296Z,72.09
2023-06-22T20:04:28.123Z,74.67
2023-06-22T20:09:30.442Z,75.20
2023-06-22T20:14:36.104Z,76.48
2023-06-22T20:19:42.524Z,76.95
2023-06-22T20:24:46.738Z,77.76
2023-06-22T20:29:49.685Z,79.76
2023-06-22T20:34:51.891Z,81.70
2023-06-22T20:39:54.020Z,82.55
2023-06-22T20:44:56.532Z,81.35
2023-06-22T20:50:00.529Z,82.39
2023-06-22T20:55:02.838Z,81.82
2023-06-22T21:00:09.293Z,81.19
2023-06-22T21:05:13.464Z,80.37
2023-06-22T21:10:16.206Z,80.08
2023-06-22T21:15:18.840Z,76.46
2023-06-22T21:20:20.988Z,74.79
2023-06-22T21:25:23.199Z,79.35
2023-06-22T21:30:25.400Z,79.63
2023-06-22T21:35:28.680Z,81.11
2023-06-22T21:40:30.968Z,80.39
2023-06-22T21:45:33.318Z,82.35
2023-06-22T21:50:38.302Z,83.11
2023-06-22T21:55:40.471Z,82.20
2023-06-22T22:00:42.710Z,80.58
2023-06-22T22:05:46.748Z,80.69
2023-06-22T22:10:49.219Z,78.10
2023-06-22T22:15:52.354Z,78.47
2023-06-22T22:20:54.520Z,82.73
2023-06-22T22:25:57.216Z,81.27
2023-06-22T22:31:00.601Z,79.08
2023-06-22T22:36:06.529Z,80.83
2023-06-22T22:41:08.740Z,85.64
2023-06-22T22:46:10.925Z,86.34
2023-06-22T22:51:13.104Z,87.41
2023-06-22T22:56:16.018Z,89.65
2023-06-22T23:01:18.199Z,89.24
2023-06-22T23:06:20.407Z,89.75
2023-06-22T23:11:29.197Z,90.74
2023-06-22T23:16:31.338Z,90.00
2023-06-22T23:21:34.186Z,90.33
2023-06-22T23:26:36.287Z,88.80
2023-06-22T23:31:38.472Z,91.37
2023-06-22T23:36:40.619Z,93.74
2023-06-22T23:41:43.497Z,94.91
2023-06-22T23:46:45.622Z,95.42
2023-06-22T23:51:47.738Z,97.20
2023-06-22T23:56:53.916Z,97.53
